Time;durP1;ratioP1;P1;durP2;ratioP2;P2;SDS_P1;SDS_P2;PMS_P1;PMS_P2;Temp;Humidity;BMP_temperature;BMP_pressure;BME280_temperature;BME280_humidity;BME280_pressure;Samples;Min_cycle;Max_cycle;Signal;HPM_P1;HPM_P2
2024/01/24 06:43:42;;;;;;;16.33;2.55;;;;;;;;;;10628901;27;20411;-79
2024/01/24 06:48:43;;;;;;;13.57;2.58;;;;;;;;;;10625699;28;20041;-79
2024/01/24 06:53:44;;;;;;;13.52;2.88;;;;;;;;;;10604629;22;20132;-77
2024/01/24 06:58:45;;;;;;;10.52;2.45;;;;;;;;;;10483095;28;20087;-78
2024/01/24 07:03:47;;;;;;;12.63;4.03;;;;;;;;;;10514983;28;20036;-80
2024/01/24 07:08:48;;;;;;;8.82;2.65;;;;;;;;;;10505147;28;20100;-79
2024/01/24 07:13:49;;;;;;;8.77;2.45;;;;;;;;;;10483405;28;20036;-79
2024/01/24 07:18:50;;;;;;;6.95;2.08;;;;;;;;;;10481277;28;20468;-77
2024/01/24 07:23:51;;;;;;;13.02;3.25;;;;;;;;;;10474023;28;20025;-78
2024/01/24 07:28:52;;;;;;;13.20;3.28;;;;;;;;;;10489689;28;20120;-78
2024/01/24 07:33:53;;;;;;;18.85;3.78;;;;;;;;;;10498133;28;20097;-78
2024/01/24 07:38:54;;;;;;;18.63;3.92;;;;;;;;;;10479081;28;20499;-78
2024/01/24 07:43:56;;;;;;;17.60;3.75;;;;;;;;;;10476793;28;20055;-78
2024/01/24 07:48:57;;;;;;;18.80;5.45;;;;;;;;;;10476354;28;20507;-78
2024/01/24 07:53:58;;;;;;;;;;;;;;;;;;10471793;28;20465;-77
2024/01/24 07:58:59;;;;;;;14.55;3.63;;;;;;;;;;10448723;28;20360;-78
2024/01/24 08:04:00;;;;;;;17.00;3.58;;;;;;;;;;10466318;28;20032;-78
2024/01/24 08:09:01;;;;;;;11.50;3.28;;;;;;;;;;10463551;28;20025;-76
2024/01/24 08:14:02;;;;;;;9.93;2.30;;;;;;;;;;10444477;28;20029;-76
2024/01/24 08:19:03;;;;;;;15.25;3.85;;;;;;;;;;10471063;28;20048;-80
2024/01/24 08:24:05;;;;;;;17.80;4.25;;;;;;;;;;10462607;28;20033;-79
2024/01/24 08:29:05;;;;;;;;;;;;;;;;;;10464833;28;20400;-79
2024/01/24 08:34:07;;;;;;;8.35;3.05;;;;;;;;;;10469353;28;19980;-80
2024/01/24 08:39:08;;;;;;;;;;;;;;;;;;10467592;28;20040;-80
2024/01/24 08:44:09;;;;;;;14.93;3.92;;;;;;;;;;10465797;28;19911;-81
2024/01/24 08:49:12;;;;;;;16.73;4.45;;;;;;;;;;10464280;28;20032;-80
2024/01/24 08:54:13;;;;;;;12.77;3.60;;;;;;;;;;10483740;28;20021;-79
2024/01/24 08:59:14;;;;;;;16.00;4.32;;;;;;;;;;10467011;28;20029;-80
2024/01/24 09:04:15;;;;;;;14.32;3.90;;;;;;;;;;10485780;28;20025;-80
2024/01/24 09:09:18;;;;;;;;;;;;;;;;;;10465643;28;20428;-81
2024/01/24 09:14:19;;;;;;;15.98;4.60;;;;;;;;;;10455444;28;19905;-81
2024/01/24 09:19:21;;;;;;;14.38;3.42;;;;;;;;;;10472163;28;20029;-80
2024/01/24 09:24:22;;;;;;;20.08;6.40;;;;;;;;;;10474323;28;20163;-80
2024/01/24 09:29:23;;;;;;;17.15;5.93;;;;;;;;;;10467451;28;20167;-81
2024/01/24 09:34:26;;;;;;;11.77;3.75;;;;;;;;;;10451879;28;20182;-80
2024/01/24 09:39:27;;;;;;;13.30;4.63;;;;;;;;;;10452020;28;20028;-81
2024/01/24 09:44:30;;;;;;;22.52;4.85;;;;;;;;;;10452558;28;20088;-79
2024/01/24 09:49:32;;;;;;;11.48;3.97;;;;;;;;;;10475604;28;20036;-79
2024/01/24 09:54:35;;;;;;;15.75;4.07;;;;;;;;;;10456005;28;20033;-79
2024/01/24 09:59:36;;;;;;;15.15;3.88;;;;;;;;;;10454716;28;20021;-79
2024/01/24 10:04:37;;;;;;;14.65;3.80;;;;;;;;;;10451069;28;20507;-79
2024/01/24 10:09:38;;;;;;;15.40;4.32;;;;;;;;;;10450363;28;20479;-79
2024/01/24 10:14:43;;;;;;;17.38;4.10;;;;;;;;;;10451546;28;20089;-80
2024/01/24 10:19:44;;;;;;;20.65;7.78;;;;;;;;;;10453239;28;20136;-79
2024/01/24 10:24:45;;;;;;;15.75;4.43;;;;;;;;;;10456186;28;20552;-80
2024/01/24 10:29:46;;;;;;;13.00;4.38;;;;;;;;;;10489734;28;20001;-79
2024/01/24 10:34:49;;;;;;;14.57;3.65;;;;;;;;;;10470298;28;20036;-82
2024/01/24 10:39:52;;;;;;;19.30;4.68;;;;;;;;;;10455163;28;20040;-80
2024/01/24 10:44:53;;;;;;;16.67;4.53;;;;;;;;;;10473156;28;20052;-81
2024/01/24 10:49:54;;;;;;;18.50;5.90;;;;;;;;;;10461641;28;20067;-82
2024/01/24 10:54:56;;;;;;;16.27;3.95;;;;;;;;;;10460006;28;20064;-82
2024/01/24 10:59:57;;;;;;;13.23;3.70;;;;;;;;;;10458541;28;20040;-82
2024/01/24 11:04:58;;;;;;;;;;;;;;;;;;10461607;28;20032;-81
2024/01/24 11:10:09;;;;;;;13.60;4.15;;;;;;;;;;10460318;28;19972;-82
2024/01/24 11:15:11;;;;;;;;;;;;;;;;;;10468060;28;20086;-81
2024/01/24 11:20:12;;;;;;;13.32;3.58;;;;;;;;;;10476668;28;19915;-79
2024/01/24 11:25:13;;;;;;;15.80;4.82;;;;;;;;;;10452998;28;20029;-79
2024/01/24 11:30:37;;;;;;;16.00;4.45;;;;;;;;;;10480275;28;20475;-78
2024/01/24 11:35:40;;;;;;;12.38;3.83;;;;;;;;;;10447047;28;20095;-78
2024/01/24 11:40:43;;;;;;;15.95;4.13;;;;;;;;;;10466028;28;20029;-79
2024/01/24 11:45:44;;;;;;;16.33;3.75;;;;;;;;;;10471088;28;20029;-78
2024/01/24 11:50:46;;;;;;;17.73;4.07;;;;;;;;;;10467084;28;20029;-79
2024/01/24 11:55:50;;;;;;;16.27;3.97;;;;;;;;;;10461420;28;20116;-80
2024/01/24 12:00:52;;;;;;;16.23;3.38;;;;;;;;;;10466321;28;20021;-83
2024/01/24 12:05:53;;;;;;;13.70;3.72;;;;;;;;;;10465955;28;20060;-83
2024/01/24 12:10:55;;;;;;;16.98;4.30;;;;;;;;;;10466914;28;20033;-83
2024/01/24 12:16:01;;;;;;;11.27;3.67;;;;;;;;;;10501867;28;20041;-83
2024/01/24 12:21:08;;;;;;;15.10;3.92;;;;;;;;;;10478045;28;20025;-82
2024/01/24 12:26:09;;;;;;;14.73;3.67;;;;;;;;;;10466150;28;20029;-84
2024/01/24 12:31:19;;;;;;;13.93;3.92;;;;;;;;;;10467609;28;20136;-83
2024/01/24 12:36:20;;;;;;;15.98;3.78;;;;;;;;;;10451999;28;20064;-84
2024/01/24 12:41:22;;;;;;;17.13;3.83;;;;;;;;;;10466581;28;20036;-82
2024/01/24 12:46:24;;;;;;;11.52;3.55;;;;;;;;;;10466903;28;20029;-82
2024/01/24 12:51:26;;;;;;;15.85;3.63;;;;;;;;;;10466946;28;20060;-83
2024/01/24 13:02:09;;;;;;;16.80;4.18;;;;;;;;;;10518556;28;20029;-82
2024/01/24 13:12:52;;;;;;;14.73;4.20;;;;;;;;;;10520146;28;20438;-85
2024/01/24 13:18:11;;;;;;;12.68;3.42;;;;;;;;;;10523031;28;20031;-85
2024/01/24 13:23:38;;;;;;;15.25;3.70;;;;;;;;;;10519757;28;20454;-86
2024/01/24 13:34:23;;;;;;;10.40;3.03;;;;;;;;;;10552163;28;20101;-85
2024/01/24 13:39:45;;;;;;;10.88;2.80;;;;;;;;;;10555777;28;20502;-87
2024/01/24 13:45:00;;;;;;;11.80;3.58;;;;;;;;;;10557834;28;20495;-86
2024/01/24 13:50:39;;;;;;;14.52;3.60;;;;;;;;;;10428062;28;20030;-86
2024/01/24 13:56:07;;;;;;;12.95;3.58;;;;;;;;;;10528218;28;20101;-86
2024/01/24 14:01:09;;;;;;;14.25;4.43;;;;;;;;;;10545811;28;20028;-85
2024/01/24 14:06:20;;;;;;;11.82;3.35;;;;;;;;;;10563057;28;20020;-85
2024/01/24 14:17:41;;;;;;;11.02;3.78;;;;;;;;;;10470353;28;20033;-87
2024/01/24 14:22:55;;;;;;;11.65;3.55;;;;;;;;;;10471752;28;20061;-87
2024/01/24 14:28:00;;;;;;;10.75;2.83;;;;;;;;;;10458059;28;20045;-86
2024/01/24 14:33:04;;;;;;;12.25;3.05;;;;;;;;;;10461295;28;20045;-83
2024/01/24 14:38:27;;;;;;;11.32;3.15;;;;;;;;;;10495543;28;20031;-85
2024/01/24 14:43:38;;;;;;;9.55;2.63;;;;;;;;;;10613591;28;20080;-86
2024/01/24 14:48:56;;;;;;;11.45;2.78;;;;;;;;;;10609023;28;20024;-86
2024/01/24 14:54:21;;;;;;;9.75;2.63;;;;;;;;;;10630081;28;20030;-84
2024/01/24 14:59:23;;;;;;;9.60;2.60;;;;;;;;;;10629934;28;20039;-84
2024/01/24 15:04:25;;;;;;;9.52;2.50;;;;;;;;;;10595632;28;20060;-84
2024/01/24 15:09:35;;;;;;;11.52;2.88;;;;;;;;;;10584036;28;20371;-88
2024/01/24 15:20:56;;;;;;;9.95;2.72;;;;;;;;;;10595556;28;20012;-88
2024/01/24 15:25:57;;;;;;;11.60;3.03;;;;;;;;;;10579233;28;20035;-82
2024/01/24 15:31:06;;;;;;;9.30;3.20;;;;;;;;;;10595250;28;20027;-86
2024/01/24 15:53:16;;;;;;;9.52;2.88;;;;;;;;;;10597876;28;20039;-85
2024/01/24 16:04:00;;;;;;;10.13;3.65;;;;;;;;;;10597013;28;20032;-86
2024/01/24 16:09:28;;;;;;;11.57;3.65;;;;;;;;;;10598536;28;20024;-86
2024/01/24 16:14:59;;;;;;;14.93;4.70;;;;;;;;;;10576010;28;20034;-86
2024/01/24 16:25:54;;;;;;;14.77;3.85;;;;;;;;;;10590595;28;20019;-86
2024/01/24 16:37:06;;;;;;;14.73;4.25;;;;;;;;;;10591743;28;20075;-85
2024/01/24 16:42:29;;;;;;;11.20;3.22;;;;;;;;;;10572908;28;20046;-87
2024/01/24 16:47:59;;;;;;;10.73;2.90;;;;;;;;;;10596674;28;20035;-87
2024/01/24 16:53:06;;;;;;;11.23;3.00;;;;;;;;;;10571236;28;20435;-86
2024/01/24 16:58:09;;;;;;;11.52;3.75;;;;;;;;;;10570325;28;20066;-86
2024/01/24 17:03:28;;;;;;;10.35;3.53;;;;;;;;;;10592281;28;20039;-84
2024/01/24 17:08:38;;;;;;;;;;;;;;;;;;10580980;28;20028;-87
2024/01/24 17:13:39;;;;;;;10.23;3.03;;;;;;;;;;10586939;28;19922;-87
2024/01/24 17:18:40;;;;;;;11.82;3.95;;;;;;;;;;10569201;28;20028;-87
2024/01/24 17:23:41;;;;;;;;;;;;;;;;;;10571369;28;20027;-84
2024/01/24 17:28:42;;;;;;;14.00;3.20;;;;;;;;;;10592377;28;19904;-84
2024/01/24 17:33:43;;;;;;;12.60;3.55;;;;;;;;;;10576049;28;20036;-85
2024/01/24 17:38:47;;;;;;;16.02;3.75;;;;;;;;;;10576931;28;20471;-85
2024/01/24 17:44:01;;;;;;;15.52;3.53;;;;;;;;;;10580384;28;20118;-84
2024/01/24 17:49:02;;;;;;;18.25;4.47;;;;;;;;;;10580069;28;20027;-84
2024/01/24 17:54:03;;;;;;;;;;;;;;;;;;10580129;28;20032;-85
2024/01/24 18:00:00;;;;;;;16.45;4.60;;;;;;;;;;10596618;28;19919;-84
2024/01/24 18:05:03;;;;;;;12.43;3.42;;;;;;;;;;10578951;28;20106;-84
2024/01/24 18:10:07;;;;;;;12.40;3.33;;;;;;;;;;10581653;28;20039;-84
2024/01/24 18:15:17;;;;;;;15.50;4.32;;;;;;;;;;10581163;28;20026;-84
2024/01/24 18:20:24;;;;;;;16.20;4.20;;;;;;;;;;10599077;28;20023;-84
2024/01/24 18:25:31;;;;;;;13.77;3.85;;;;;;;;;;10584472;28;20129;-84
2024/01/24 18:30:32;;;;;;;11.38;3.33;;;;;;;;;;10593823;28;20024;-85
2024/01/24 18:41:18;;;;;;;14.10;3.55;;;;;;;;;;10594011;28;19907;-84
2024/01/24 18:46:20;;;;;;;11.43;3.03;;;;;;;;;;10575018;28;20020;-85
2024/01/24 18:57:08;;;;;;;11.98;3.22;;;;;;;;;;10578569;22;20107;-84
2024/01/24 19:02:09;;;;;;;15.70;3.92;;;;;;;;;;10527735;28;20036;-84
2024/01/24 19:07:17;;;;;;;14.68;4.40;;;;;;;;;;10528715;28;20024;-84
2024/01/24 19:12:23;;;;;;;14.93;3.45;;;;;;;;;;10514639;28;20043;-84
2024/01/24 19:17:33;;;;;;;17.42;3.92;;;;;;;;;;10568392;28;20024;-82
2024/01/24 19:23:22;;;;;;;18.75;5.32;;;;;;;;;;10418808;28;20037;-82
2024/01/24 19:34:46;;;;;;;12.82;3.72;;;;;;;;;;10411071;28;20037;-82
2024/01/24 19:39:58;;;;;;;11.82;3.42;;;;;;;;;;10425398;28;20107;-83
2024/01/24 19:45:23;;;;;;;13.90;3.38;;;;;;;;;;10509929;28;20134;-82
2024/01/24 19:56:41;;;;;;;11.18;3.08;;;;;;;;;;10542551;28;20032;-83
2024/01/24 20:07:52;;;;;;;15.07;4.57;;;;;;;;;;10557913;28;20032;-83
